sensor_id;sensor_type;location;lat;lon;timestamp;P1;durP1;ratioP1;P2;durP2;ratioP2
37309;SDS011;23195;47.744;7.358;2022-10-30T06:20:29;14.80;;;5.80;;
37309;SDS011;23195;47.744;7.358;2022-10-30T06:22:56;15.20;;;5.60;;
37309;SDS011;23195;47.744;7.358;2022-10-30T06:25:24;17.47;;;5.83;;
37309;SDS011;23195;47.744;7.358;2022-10-30T06:27:50;10.07;;;5.87;;
37309;SDS011;23195;47.744;7.358;2022-10-30T06:30:16;19.70;;;5.53;;
37309;SDS011;23195;47.744;7.358;2022-10-30T06:32:42;12.43;;;5.00;;
37309;SDS011;23195;47.744;7.358;2022-10-30T06:35:08;14.23;;;6.00;;
37309;SDS011;23195;47.744;7.358;2022-10-30T06:37:47;11.27;;;5.50;;
37309;SDS011;23195;47.744;7.358;2022-10-30T06:40:14;11.93;;;5.67;;
37309;SDS011;23195;47.744;7.358;2022-10-30T06:42:46;19.97;;;6.10;;
37309;SDS011;23195;47.744;7.358;2022-10-30T06:45:26;15.50;;;5.80;;
37309;SDS011;23195;47.744;7.358;2022-10-30T06:47:55;16.90;;;6.67;;
37309;SDS011;23195;47.744;7.358;2022-10-30T06:50:41;16.77;;;6.30;;
37309;SDS011;23195;47.744;7.358;2022-10-30T06:53:10;16.67;;;6.43;;
37309;SDS011;23195;47.744;7.358;2022-10-30T06:59:06;17.37;;;7.10;;
37309;SDS011;23195;47.744;7.358;2022-10-30T07:01:34;14.03;;;7.10;;
37309;SDS011;23195;47.744;7.358;2022-10-30T07:04:13;14.77;;;7.03;;
37309;SDS011;23195;47.744;7.358;2022-10-30T07:06:46;12.87;;;7.00;;
37309;SDS011;23195;47.744;7.358;2022-10-30T07:09:15;17.80;;;7.57;;
37309;SDS011;23195;47.744;7.358;2022-10-30T07:11:43;16.67;;;7.53;;
37309;SDS011;23195;47.744;7.358;2022-10-30T07:14:12;12.93;;;6.87;;
37309;SDS011;23195;47.744;7.358;2022-10-30T07:16:38;18.57;;;7.63;;
37309;SDS011;23195;47.744;7.358;2022-10-30T07:19:04;18.20;;;7.53;;
37309;SDS011;23195;47.744;7.358;2022-10-30T07:21:29;20.10;;;7.00;;
37309;SDS011;23195;47.744;7.358;2022-10-30T07:23:55;15.77;;;6.97;;
37309;SDS011;23195;47.744;7.358;2022-10-30T07:26:24;18.37;;;6.93;;
37309;SDS011;23195;47.744;7.358;2022-10-30T07:28:49;13.57;;;6.97;;
37309;SDS011;23195;47.744;7.358;2022-10-30T07:31:16;17.33;;;6.77;;
37309;SDS011;23195;47.744;7.358;2022-10-30T07:33:41;15.10;;;6.67;;
37309;SDS011;23195;47.744;7.358;2022-10-30T07:36:07;15.27;;;6.83;;
37309;SDS011;23195;47.744;7.358;2022-10-30T07:38:33;14.83;;;6.50;;
37309;SDS011;23195;47.744;7.358;2022-10-30T07:40:59;13.27;;;5.90;;
37309;SDS011;23195;47.744;7.358;2022-10-30T07:43:24;15.63;;;5.93;;
37309;SDS011;23195;47.744;7.358;2022-10-30T07:45:50;14.77;;;5.20;;
37309;SDS011;23195;47.744;7.358;2022-10-30T07:48:16;14.47;;;6.20;;
37309;SDS011;23195;47.744;7.358;2022-10-30T07:50:42;16.27;;;5.33;;
37309;SDS011;23195;47.744;7.358;2022-10-30T07:53:08;15.97;;;5.80;;
37309;SDS011;23195;47.744;7.358;2022-10-30T07:55:33;11.00;;;5.67;;
37309;SDS011;23195;47.744;7.358;2022-10-30T07:57:59;13.47;;;5.83;;
37309;SDS011;23195;47.744;7.358;2022-10-30T08:00:25;18.83;;;6.17;;
37309;SDS011;23195;47.744;7.358;2022-10-30T08:02:50;15.93;;;5.53;;
37309;SDS011;23195;47.744;7.358;2022-10-30T08:05:20;16.23;;;6.67;;
37309;SDS011;23195;47.744;7.358;2022-10-30T08:07:46;13.30;;;5.93;;
37309;SDS011;23195;47.744;7.358;2022-10-30T08:10:12;14.60;;;6.17;;
37309;SDS011;23195;47.744;7.358;2022-10-30T08:12:38;14.90;;;6.53;;
37309;SDS011;23195;47.744;7.358;2022-10-30T08:15:06;14.20;;;6.23;;
37309;SDS011;23195;47.744;7.358;2022-10-30T08:17:32;11.43;;;6.03;;
37309;SDS011;23195;47.744;7.358;2022-10-30T08:20:05;15.00;;;6.33;;
37309;SDS011;23195;47.744;7.358;2022-10-30T08:22:31;17.63;;;6.20;;
37309;SDS011;23195;47.744;7.358;2022-10-30T08:24:57;16.60;;;6.23;;
37309;SDS011;23195;47.744;7.358;2022-10-30T08:27:23;17.40;;;6.00;;
37309;SDS011;23195;47.744;7.358;2022-10-30T08:29:48;14.37;;;6.63;;
37309;SDS011;23195;47.744;7.358;2022-10-30T08:32:14;16.87;;;6.10;;
37309;SDS011;23195;47.744;7.358;2022-10-30T08:34:40;14.90;;;6.23;;
37309;SDS011;23195;47.744;7.358;2022-10-30T08:37:06;26.47;;;6.60;;
37309;SDS011;23195;47.744;7.358;2022-10-30T08:39:34;13.60;;;5.80;;
37309;SDS011;23195;47.744;7.358;2022-10-30T08:42:00;16.63;;;5.80;;
37309;SDS011;23195;47.744;7.358;2022-10-30T08:44:25;14.40;;;5.83;;
37309;SDS011;23195;47.744;7.358;2022-10-30T08:46:51;16.50;;;6.00;;
37309;SDS011;23195;47.744;7.358;2022-10-30T08:49:17;14.17;;;5.80;;
37309;SDS011;23195;47.744;7.358;2022-10-30T08:51:43;12.90;;;5.43;;
37309;SDS011;23195;47.744;7.358;2022-10-30T08:54:10;13.73;;;6.27;;
37309;SDS011;23195;47.744;7.358;2022-10-30T08:56:35;10.63;;;5.97;;
37309;SDS011;23195;47.744;7.358;2022-10-30T08:59:01;12.83;;;5.87;;
37309;SDS011;23195;47.744;7.358;2022-10-30T09:01:27;14.63;;;6.07;;
37309;SDS011;23195;47.744;7.358;2022-10-30T09:03:52;16.87;;;6.33;;
37309;SDS011;23195;47.744;7.358;2022-10-30T09:06:18;19.87;;;6.30;;
37309;SDS011;23195;47.744;7.358;2022-10-30T09:08:44;16.53;;;5.67;;
37309;SDS011;23195;47.744;7.358;2022-10-30T09:11:10;20.43;;;6.30;;
37309;SDS011;23195;47.744;7.358;2022-10-30T09:13:36;13.53;;;5.37;;
37309;SDS011;23195;47.744;7.358;2022-10-30T09:16:02;11.17;;;4.80;;
37309;SDS011;23195;47.744;7.358;2022-10-30T09:18:29;12.63;;;5.03;;
37309;SDS011;23195;47.744;7.358;2022-10-30T09:20:55;13.03;;;5.20;;
37309;SDS011;23195;47.744;7.358;2022-10-30T09:23:20;17.93;;;5.60;;
37309;SDS011;23195;47.744;7.358;2022-10-30T09:25:46;12.00;;;5.47;;
37309;SDS011;23195;47.744;7.358;2022-10-30T09:28:12;11.67;;;5.27;;
37309;SDS011;23195;47.744;7.358;2022-10-30T09:30:38;10.53;;;5.07;;
37309;SDS011;23195;47.744;7.358;2022-10-30T09:33:03;14.93;;;5.27;;
37309;SDS011;23195;47.744;7.358;2022-10-30T09:35:29;12.33;;;4.73;;
37309;SDS011;23195;47.744;7.358;2022-10-30T09:37:56;12.37;;;5.13;;
37309;SDS011;23195;47.744;7.358;2022-10-30T09:43:14;12.53;;;5.00;;
37309;SDS011;23195;47.744;7.358;2022-10-30T09:45:58;12.53;;;5.07;;
37309;SDS011;23195;47.744;7.358;2022-10-30T09:48:48;19.67;;;6.20;;
37309;SDS011;23195;47.744;7.358;2022-10-30T09:57:34;14.17;;;5.97;;
37309;SDS011;23195;47.744;7.358;2022-10-30T10:02:25;17.80;;;5.50;;
37309;SDS011;23195;47.744;7.358;2022-10-30T10:04:59;15.53;;;5.83;;
37309;SDS011;23195;47.744;7.358;2022-10-30T10:07:44;15.20;;;5.43;;
37309;SDS011;23195;47.744;7.358;2022-10-30T10:10:24;13.27;;;5.60;;
37309;SDS011;23195;47.744;7.358;2022-10-30T10:13:11;15.13;;;5.87;;
37309;SDS011;23195;47.744;7.358;2022-10-30T10:16:04;11.97;;;5.17;;
37309;SDS011;23195;47.744;7.358;2022-10-30T10:18:42;16.53;;;5.57;;
37309;SDS011;23195;47.744;7.358;2022-10-30T10:21:31;17.87;;;5.50;;
37309;SDS011;23195;47.744;7.358;2022-10-30T10:24:08;14.67;;;5.33;;
37309;SDS011;23195;47.744;7.358;2022-10-30T10:29:36;12.70;;;5.60;;
37309;SDS011;23195;47.744;7.358;2022-10-30T10:32:39;13.13;;;4.67;;
37309;SDS011;23195;47.744;7.358;2022-10-30T10:38:01;10.77;;;4.87;;
37309;SDS011;23195;47.744;7.358;2022-10-30T10:49:31;12.77;;;4.70;;
37309;SDS011;23195;47.744;7.358;2022-10-30T10:52:34;15.30;;;5.23;;
37309;SDS011;23195;47.744;7.358;2022-10-30T10:55:06;11.70;;;4.43;;
37309;SDS011;23195;47.744;7.358;2022-10-30T10:57:43;15.80;;;4.60;;
37309;SDS011;23195;47.744;7.358;2022-10-30T11:00:14;12.17;;;4.50;;
37309;SDS011;23195;47.744;7.358;2022-10-30T11:08:22;13.70;;;4.93;;
37309;SDS011;23195;47.744;7.358;2022-10-30T11:10:56;10.03;;;5.20;;
37309;SDS011;23195;47.744;7.358;2022-10-30T11:13:24;11.37;;;5.63;;
37309;SDS011;23195;47.744;7.358;2022-10-30T11:18:42;16.63;;;5.03;;
37309;SDS011;23195;47.744;7.358;2022-10-30T11:21:20;10.00;;;4.77;;
37309;SDS011;23195;47.744;7.358;2022-10-30T11:23:47;19.07;;;5.60;;
37309;SDS011;23195;47.744;7.358;2022-10-30T11:33:52;9.87;;;4.70;;
37309;SDS011;23195;47.744;7.358;2022-10-30T11:36:21;12.20;;;4.90;;
37309;SDS011;23195;47.744;7.358;2022-10-30T11:38:48;7.90;;;4.27;;
37309;SDS011;23195;47.744;7.358;2022-10-30T11:41:14;15.13;;;4.73;;
37309;SDS011;23195;47.744;7.358;2022-10-30T11:43:41;21.30;;;7.47;;
37309;SDS011;23195;47.744;7.358;2022-10-30T11:46:08;13.23;;;4.53;;
37309;SDS011;23195;47.744;7.358;2022-10-30T11:48:42;13.23;;;4.30;;
37309;SDS011;23195;47.744;7.358;2022-10-30T11:51:09;7.60;;;3.90;;
37309;SDS011;23195;47.744;7.358;2022-10-30T11:53:38;15.13;;;4.43;;
37309;SDS011;23195;47.744;7.358;2022-10-30T11:56:17;17.83;;;4.20;;
37309;SDS011;23195;47.744;7.358;2022-10-30T11:58:46;12.87;;;4.50;;
37309;SDS011;23195;47.744;7.358;2022-10-30T12:04:12;13.03;;;4.27;;
37309;SDS011;23195;47.744;7.358;2022-10-30T12:06:46;14.83;;;4.67;;
37309;SDS011;23195;47.744;7.358;2022-10-30T12:09:21;11.47;;;3.70;;
37309;SDS011;23195;47.744;7.358;2022-10-30T12:11:47;10.63;;;4.23;;
37309;SDS011;23195;47.744;7.358;2022-10-30T12:14:21;13.07;;;6.80;;
37309;SDS011;23195;47.744;7.358;2022-10-30T12:16:52;10.97;;;4.83;;
37309;SDS011;23195;47.744;7.358;2022-10-30T12:19:21;20.17;;;5.17;;
37309;SDS011;23195;47.744;7.358;2022-10-30T12:21:49;12.90;;;4.10;;
37309;SDS011;23195;47.744;7.358;2022-10-30T12:26:45;23.67;;;9.70;;
37309;SDS011;23195;47.744;7.358;2022-10-30T12:29:17;15.33;;;4.63;;
37309;SDS011;23195;47.744;7.358;2022-10-30T12:32:18;14.93;;;4.80;;
37309;SDS011;23195;47.744;7.358;2022-10-30T12:34:45;15.80;;;4.83;;
37309;SDS011;23195;47.744;7.358;2022-10-30T12:39:52;12.13;;;4.30;;
37309;SDS011;23195;47.744;7.358;2022-10-30T12:42:25;10.50;;;4.00;;
37309;SDS011;23195;47.744;7.358;2022-10-30T12:44:54;12.23;;;4.17;;
37309;SDS011;23195;47.744;7.358;2022-10-30T12:47:54;13.90;;;4.10;;
37309;SDS011;23195;47.744;7.358;2022-10-30T12:50:46;11.47;;;3.97;;
37309;SDS011;23195;47.744;7.358;2022-10-30T12:53:31;10.43;;;4.33;;
37309;SDS011;23195;47.744;7.358;2022-10-30T12:56:08;13.50;;;4.27;;
37309;SDS011;23195;47.744;7.358;2022-10-30T13:01:36;12.40;;;4.00;;
37309;SDS011;23195;47.744;7.358;2022-10-30T13:07:17;8.83;;;3.50;;
37309;SDS011;23195;47.744;7.358;2022-10-30T13:10:00;13.73;;;4.00;;
37309;SDS011;23195;47.744;7.358;2022-10-30T13:12:37;11.63;;;3.97;;
37309;SDS011;23195;47.744;7.358;2022-10-30T13:15:17;11.23;;;3.87;;
37309;SDS011;23195;47.744;7.358;2022-10-30T13:17:59;13.87;;;4.33;;
37309;SDS011;23195;47.744;7.358;2022-10-30T13:21:06;9.57;;;4.20;;
37309;SDS011;23195;47.744;7.358;2022-10-30T13:23:51;15.57;;;3.93;;
37309;SDS011;23195;47.744;7.358;2022-10-30T13:26:43;7.50;;;3.57;;
37309;SDS011;23195;47.744;7.358;2022-10-30T13:31:50;10.90;;;3.40;;
37309;SDS011;23195;47.744;7.358;2022-10-30T13:37:09;11.93;;;3.70;;
37309;SDS011;23195;47.744;7.358;2022-10-30T13:51:19;11.63;;;4.00;;
37309;SDS011;23195;47.744;7.358;2022-10-30T13:54:00;9.73;;;3.97;;
37309;SDS011;23195;47.744;7.358;2022-10-30T13:56:31;12.47;;;3.80;;
37309;SDS011;23195;47.744;7.358;2022-10-30T14:10:05;10.67;;;4.20;;
37309;SDS011;23195;47.744;7.358;2022-10-30T14:15:26;12.47;;;3.97;;
37309;SDS011;23195;47.744;7.358;2022-10-30T14:18:16;12.93;;;4.20;;
37309;SDS011;23195;47.744;7.358;2022-10-30T14:20:48;16.30;;;4.10;;
37309;SDS011;23195;47.744;7.358;2022-10-30T14:28:30;14.00;;;3.77;;
37309;SDS011;23195;47.744;7.358;2022-10-30T14:33:41;10.17;;;3.73;;
37309;SDS011;23195;47.744;7.358;2022-10-30T14:36:15;13.03;;;4.10;;
37309;SDS011;23195;47.744;7.358;2022-10-30T14:38:53;15.37;;;4.10;;
37309;SDS011;23195;47.744;7.358;2022-10-30T14:46:56;12.30;;;3.90;;
37309;SDS011;23195;47.744;7.358;2022-10-30T14:57:43;11.13;;;4.77;;
37309;SDS011;23195;47.744;7.358;2022-10-30T15:05:56;12.30;;;4.67;;
37309;SDS011;23195;47.744;7.358;2022-10-30T15:14:09;8.67;;;3.80;;
37309;SDS011;23195;47.744;7.358;2022-10-30T15:16:59;10.30;;;4.60;;
37309;SDS011;23195;47.744;7.358;2022-10-30T15:19:25;13.77;;;4.50;;
37309;SDS011;23195;47.744;7.358;2022-10-30T15:21:52;12.53;;;4.37;;
37309;SDS011;23195;47.744;7.358;2022-10-30T15:24:23;8.30;;;4.10;;
37309;SDS011;23195;47.744;7.358;2022-10-30T15:26:52;13.10;;;4.63;;
37309;SDS011;23195;47.744;7.358;2022-10-30T15:29:24;12.20;;;4.33;;
37309;SDS011;23195;47.744;7.358;2022-10-30T15:31:59;15.03;;;4.57;;
37309;SDS011;23195;47.744;7.358;2022-10-30T15:34:29;9.40;;;4.03;;
37309;SDS011;23195;47.744;7.358;2022-10-30T15:36:57;11.03;;;4.67;;
37309;SDS011;23195;47.744;7.358;2022-10-30T15:39:23;15.03;;;5.13;;
37309;SDS011;23195;47.744;7.358;2022-10-30T15:44:31;13.87;;;4.90;;
37309;SDS011;23195;47.744;7.358;2022-10-30T15:47:01;11.47;;;4.70;;
37309;SDS011;23195;47.744;7.358;2022-10-30T15:49:32;8.47;;;4.90;;
37309;SDS011;23195;47.744;7.358;2022-10-30T15:51:58;10.63;;;4.77;;
37309;SDS011;23195;47.744;7.358;2022-10-30T15:54:26;13.73;;;4.50;;
37309;SDS011;23195;47.744;7.358;2022-10-30T15:56:57;10.47;;;5.07;;
37309;SDS011;23195;47.744;7.358;2022-10-30T15:59:30;13.70;;;5.53;;
37309;SDS011;23195;47.744;7.358;2022-10-30T16:01:58;10.63;;;5.30;;
37309;SDS011;23195;47.744;7.358;2022-10-30T16:04:26;11.63;;;5.10;;
37309;SDS011;23195;47.744;7.358;2022-10-30T16:06:56;13.57;;;5.47;;
37309;SDS011;23195;47.744;7.358;2022-10-30T16:09:24;8.03;;;4.57;;
37309;SDS011;23195;47.744;7.358;2022-10-30T16:11:52;12.50;;;5.00;;
37309;SDS011;23195;47.744;7.358;2022-10-30T16:14:24;15.40;;;5.47;;
37309;SDS011;23195;47.744;7.358;2022-10-30T16:16:51;12.30;;;5.30;;
37309;SDS011;23195;47.744;7.358;2022-10-30T16:21:54;12.27;;;5.50;;
37309;SDS011;23195;47.744;7.358;2022-10-30T16:24:30;12.97;;;5.77;;
37309;SDS011;23195;47.744;7.358;2022-10-30T16:27:03;12.33;;;5.83;;
37309;SDS011;23195;47.744;7.358;2022-10-30T16:29:30;13.90;;;5.60;;
37309;SDS011;23195;47.744;7.358;2022-10-30T16:31:58;23.57;;;11.67;;
37309;SDS011;23195;47.744;7.358;2022-10-30T16:34:26;19.40;;;10.33;;
37309;SDS011;23195;47.744;7.358;2022-10-30T16:36:56;17.33;;;8.17;;
37309;SDS011;23195;47.744;7.358;2022-10-30T16:39:23;18.53;;;8.20;;
37309;SDS011;23195;47.744;7.358;2022-10-30T16:41:50;11.93;;;6.10;;
37309;SDS011;23195;47.744;7.358;2022-10-30T16:49:22;11.53;;;5.40;;
37309;SDS011;23195;47.744;7.358;2022-10-30T16:52:12;10.57;;;4.63;;
37309;SDS011;23195;47.744;7.358;2022-10-30T16:54:41;9.10;;;4.00;;
37309;SDS011;23195;47.744;7.358;2022-10-30T16:57:18;12.47;;;4.80;;
37309;SDS011;23195;47.744;7.358;2022-10-30T16:59:50;10.73;;;4.23;;
37309;SDS011;23195;47.744;7.358;2022-10-30T17:02:18;12.80;;;4.20;;
37309;SDS011;23195;47.744;7.358;2022-10-30T17:05:09;13.93;;;4.90;;
37309;SDS011;23195;47.744;7.358;2022-10-30T17:07:41;11.00;;;4.33;;
37309;SDS011;23195;47.744;7.358;2022-10-30T17:10:29;9.60;;;3.63;;
37309;SDS011;23195;47.744;7.358;2022-10-30T17:13:27;8.23;;;3.60;;
37309;SDS011;23195;47.744;7.358;2022-10-30T17:15:56;9.93;;;4.30;;
37309;SDS011;23195;47.744;7.358;2022-10-30T17:18:29;12.47;;;5.17;;
37309;SDS011;23195;47.744;7.358;2022-10-30T17:21:07;10.53;;;5.97;;
37309;SDS011;23195;47.744;7.358;2022-10-30T17:23:51;10.27;;;7.07;;
37309;SDS011;23195;47.744;7.358;2022-10-30T17:26:20;18.17;;;7.40;;
37309;SDS011;23195;47.744;7.358;2022-10-30T17:28:48;13.37;;;6.80;;
37309;SDS011;23195;47.744;7.358;2022-10-30T17:33:45;9.40;;;5.87;;
37309;SDS011;23195;47.744;7.358;2022-10-30T17:36:11;20.00;;;6.80;;
37309;SDS011;23195;47.744;7.358;2022-10-30T17:38:37;9.63;;;5.10;;
37309;SDS011;23195;47.744;7.358;2022-10-30T17:41:08;9.30;;;4.23;;
37309;SDS011;23195;47.744;7.358;2022-10-30T17:43:48;9.23;;;3.90;;
37309;SDS011;23195;47.744;7.358;2022-10-30T17:46:16;16.47;;;4.43;;
37309;SDS011;23195;47.744;7.358;2022-10-30T17:48:41;13.20;;;5.10;;
37309;SDS011;23195;47.744;7.358;2022-10-30T17:51:10;9.27;;;4.57;;
37309;SDS011;23195;47.744;7.358;2022-10-30T17:53:37;10.93;;;4.00;;
37309;SDS011;23195;47.744;7.358;2022-10-30T17:56:13;7.70;;;4.00;;
37309;SDS011;23195;47.744;7.358;2022-10-30T17:58:54;11.53;;;3.73;;
37309;SDS011;23195;47.744;7.358;2022-10-30T18:01:21;5.60;;;3.37;;
37309;SDS011;23195;47.744;7.358;2022-10-30T18:03:49;7.20;;;4.43;;
37309;SDS011;23195;47.744;7.358;2022-10-30T18:06:17;12.07;;;5.37;;
37309;SDS011;23195;47.744;7.358;2022-10-30T18:08:46;12.57;;;7.30;;
37309;SDS011;23195;47.744;7.358;2022-10-30T18:11:12;14.40;;;7.30;;
37309;SDS011;23195;47.744;7.358;2022-10-30T18:13:40;12.47;;;6.73;;
37309;SDS011;23195;47.744;7.358;2022-10-30T18:16:11;13.47;;;6.17;;
37309;SDS011;23195;47.744;7.358;2022-10-30T18:18:40;11.13;;;5.27;;
37309;SDS011;23195;47.744;7.358;2022-10-30T18:21:16;16.47;;;8.10;;
37309;SDS011;23195;47.744;7.358;2022-10-30T18:23:43;19.60;;;7.90;;
37309;SDS011;23195;47.744;7.358;2022-10-30T18:26:16;21.37;;;10.93;;
37309;SDS011;23195;47.744;7.358;2022-10-30T18:28:44;18.90;;;10.63;;
37309;SDS011;23195;47.744;7.358;2022-10-30T18:31:11;16.77;;;8.53;;
37309;SDS011;23195;47.744;7.358;2022-10-30T18:33:38;14.40;;;6.10;;
37309;SDS011;23195;47.744;7.358;2022-10-30T18:36:18;11.40;;;4.47;;
37309;SDS011;23195;47.744;7.358;2022-10-30T18:38:46;17.63;;;5.40;;
37309;SDS011;23195;47.744;7.358;2022-10-30T18:41:30;13.80;;;5.63;;
37309;SDS011;23195;47.744;7.358;2022-10-30T18:43:59;11.57;;;6.53;;
37309;SDS011;23195;47.744;7.358;2022-10-30T18:46:32;15.47;;;7.30;;
37309;SDS011;23195;47.744;7.358;2022-10-30T18:48:58;9.90;;;5.70;;
37309;SDS011;23195;47.744;7.358;2022-10-30T18:51:24;16.13;;;6.37;;
37309;SDS011;23195;47.744;7.358;2022-10-30T18:53:51;16.33;;;7.70;;
37309;SDS011;23195;47.744;7.358;2022-10-30T18:56:24;14.03;;;6.77;;
37309;SDS011;23195;47.744;7.358;2022-10-30T18:58:52;21.77;;;8.33;;
37309;SDS011;23195;47.744;7.358;2022-10-30T19:01:18;17.77;;;7.70;;
37309;SDS011;23195;47.744;7.358;2022-10-30T19:03:44;12.73;;;6.10;;
37309;SDS011;23195;47.744;7.358;2022-10-30T19:06:18;13.37;;;6.17;;
37309;SDS011;23195;47.744;7.358;2022-10-30T19:08:45;11.37;;;5.33;;
37309;SDS011;23195;47.744;7.358;2022-10-30T19:11:12;12.23;;;5.87;;
37309;SDS011;23195;47.744;7.358;2022-10-30T19:13:39;9.17;;;5.70;;
37309;SDS011;23195;47.744;7.358;2022-10-30T19:16:07;13.30;;;6.07;;
37309;SDS011;23195;47.744;7.358;2022-10-30T19:18:35;12.83;;;5.37;;
37309;SDS011;23195;47.744;7.358;2022-10-30T19:21:01;17.77;;;5.90;;
37309;SDS011;23195;47.744;7.358;2022-10-30T19:23:27;13.30;;;5.93;;
37309;SDS011;23195;47.744;7.358;2022-10-30T19:25:53;13.90;;;6.67;;
37309;SDS011;23195;47.744;7.358;2022-10-30T19:28:19;11.43;;;5.57;;
37309;SDS011;23195;47.744;7.358;2022-10-30T19:30:45;14.87;;;6.60;;
37309;SDS011;23195;47.744;7.358;2022-10-30T19:33:17;11.37;;;6.13;;
37309;SDS011;23195;47.744;7.358;2022-10-30T19:35:44;11.83;;;6.60;;
37309;SDS011;23195;47.744;7.358;2022-10-30T19:38:10;18.40;;;7.57;;
37309;SDS011;23195;47.744;7.358;2022-10-30T19:40:37;11.47;;;6.83;;
37309;SDS011;23195;47.744;7.358;2022-10-30T19:43:08;21.43;;;9.10;;
37309;SDS011;23195;47.744;7.358;2022-10-30T19:45:34;13.63;;;7.40;;
37309;SDS011;23195;47.744;7.358;2022-10-30T19:48:03;14.93;;;7.77;;
37309;SDS011;23195;47.744;7.358;2022-10-30T19:50:35;17.43;;;7.93;;
37309;SDS011;23195;47.744;7.358;2022-10-30T19:53:03;16.23;;;7.40;;
37309;SDS011;23195;47.744;7.358;2022-10-30T19:55:30;14.33;;;6.80;;
37309;SDS011;23195;47.744;7.358;2022-10-30T19:57:57;14.37;;;7.00;;
37309;SDS011;23195;47.744;7.358;2022-10-30T20:00:34;10.53;;;5.83;;
37309;SDS011;23195;47.744;7.358;2022-10-30T20:03:05;19.23;;;6.90;;
37309;SDS011;23195;47.744;7.358;2022-10-30T20:05:37;16.57;;;6.30;;
37309;SDS011;23195;47.744;7.358;2022-10-30T20:08:10;13.57;;;6.30;;
37309;SDS011;23195;47.744;7.358;2022-10-30T20:10:36;15.37;;;5.93;;
37309;SDS011;23195;47.744;7.358;2022-10-30T20:13:03;18.27;;;6.13;;
37309;SDS011;23195;47.744;7.358;2022-10-30T20:15:30;16.27;;;6.30;;
37309;SDS011;23195;47.744;7.358;2022-10-30T20:17:56;13.33;;;6.40;;
37309;SDS011;23195;47.744;7.358;2022-10-30T20:20:24;11.37;;;5.80;;
37309;SDS011;23195;47.744;7.358;2022-10-30T20:22:52;15.67;;;5.73;;
37309;SDS011;23195;47.744;7.358;2022-10-30T20:25:19;11.40;;;5.80;;
37309;SDS011;23195;47.744;7.358;2022-10-30T20:27:46;13.37;;;5.63;;
37309;SDS011;23195;47.744;7.358;2022-10-30T20:30:18;14.17;;;6.13;;
37309;SDS011;23195;47.744;7.358;2022-10-30T20:32:48;14.63;;;5.90;;
37309;SDS011;23195;47.744;7.358;2022-10-30T20:35:15;17.00;;;6.27;;
37309;SDS011;23195;47.744;7.358;2022-10-30T20:37:42;10.60;;;5.77;;
37309;SDS011;23195;47.744;7.358;2022-10-30T20:40:19;14.80;;;5.87;;
37309;SDS011;23195;47.744;7.358;2022-10-30T20:42:45;17.23;;;7.13;;
37309;SDS011;23195;47.744;7.358;2022-10-30T20:45:19;16.63;;;6.83;;
37309;SDS011;23195;47.744;7.358;2022-10-30T20:47:46;16.53;;;5.90;;
37309;SDS011;23195;47.744;7.358;2022-10-30T20:50:13;17.87;;;5.97;;
37309;SDS011;23195;47.744;7.358;2022-10-30T20:52:40;13.17;;;6.00;;
37309;SDS011;23195;47.744;7.358;2022-10-30T20:55:07;17.07;;;6.37;;
37309;SDS011;23195;47.744;7.358;2022-10-30T20:57:34;17.13;;;6.03;;
37309;SDS011;23195;47.744;7.358;2022-10-30T20:59:59;12.47;;;5.40;;
37309;SDS011;23195;47.744;7.358;2022-10-30T21:02:28;12.67;;;5.60;;
37309;SDS011;23195;47.744;7.358;2022-10-30T21:04:54;12.27;;;5.93;;
37309;SDS011;23195;47.744;7.358;2022-10-30T21:07:23;13.97;;;5.97;;
37309;SDS011;23195;47.744;7.358;2022-10-30T21:09:49;15.27;;;5.93;;
37309;SDS011;23195;47.744;7.358;2022-10-30T21:12:16;13.47;;;6.20;;
37309;SDS011;23195;47.744;7.358;2022-10-30T21:14:43;18.03;;;6.57;;
37309;SDS011;23195;47.744;7.358;2022-10-30T21:17:09;16.13;;;6.00;;
37309;SDS011;23195;47.744;7.358;2022-10-30T21:19:35;13.60;;;5.77;;
37309;SDS011;23195;47.744;7.358;2022-10-30T21:22:01;11.67;;;6.03;;
37309;SDS011;23195;47.744;7.358;2022-10-30T21:24:26;10.93;;;6.00;;
37309;SDS011;23195;47.744;7.358;2022-10-30T21:26:52;14.00;;;6.87;;
37309;SDS011;23195;47.744;7.358;2022-10-30T21:29:18;11.07;;;6.00;;
37309;SDS011;23195;47.744;7.358;2022-10-30T21:31:44;14.33;;;7.10;;
37309;SDS011;23195;47.744;7.358;2022-10-30T21:34:09;14.50;;;6.70;;
37309;SDS011;23195;47.744;7.358;2022-10-30T21:36:35;27.50;;;7.00;;
37309;SDS011;23195;47.744;7.358;2022-10-30T21:39:02;17.80;;;7.13;;
37309;SDS011;23195;47.744;7.358;2022-10-30T21:41:28;18.37;;;8.07;;
37309;SDS011;23195;47.744;7.358;2022-10-30T21:43:55;15.73;;;6.93;;
37309;SDS011;23195;47.744;7.358;2022-10-30T21:46:22;17.53;;;7.70;;
37309;SDS011;23195;47.744;7.358;2022-10-30T21:48:50;15.23;;;7.43;;
37309;SDS011;23195;47.744;7.358;2022-10-30T21:53:47;18.20;;;8.30;;
37309;SDS011;23195;47.744;7.358;2022-10-30T21:56:17;15.77;;;8.80;;
37309;SDS011;23195;47.744;7.358;2022-10-30T21:58:44;14.80;;;8.23;;
37309;SDS011;23195;47.744;7.358;2022-10-30T22:01:14;18.13;;;9.30;;
37309;SDS011;23195;47.744;7.358;2022-10-30T22:03:43;21.03;;;9.57;;
37309;SDS011;23195;47.744;7.358;2022-10-30T22:06:10;15.03;;;8.73;;
37309;SDS011;23195;47.744;7.358;2022-10-30T22:08:37;15.87;;;8.50;;
37309;SDS011;23195;47.744;7.358;2022-10-30T22:11:04;15.33;;;8.43;;
37309;SDS011;23195;47.744;7.358;2022-10-30T22:13:31;14.33;;;8.47;;
37309;SDS011;23195;47.744;7.358;2022-10-30T22:15:57;13.43;;;8.60;;
37309;SDS011;23195;47.744;7.358;2022-10-30T22:18:23;23.93;;;9.33;;
37309;SDS011;23195;47.744;7.358;2022-10-30T22:20:48;13.80;;;8.47;;
37309;SDS011;23195;47.744;7.358;2022-10-30T22:23:14;20.17;;;9.70;;
37309;SDS011;23195;47.744;7.358;2022-10-30T22:25:40;26.57;;;9.53;;
37309;SDS011;23195;47.744;7.358;2022-10-30T22:28:06;17.70;;;8.80;;
37309;SDS011;23195;47.744;7.358;2022-10-30T22:30:32;16.20;;;9.47;;
37309;SDS011;23195;47.744;7.358;2022-10-30T22:32:57;20.50;;;9.07;;
37309;SDS011;23195;47.744;7.358;2022-10-30T22:35:23;18.90;;;9.17;;
37309;SDS011;23195;47.744;7.358;2022-10-30T22:37:49;21.00;;;9.93;;
37309;SDS011;23195;47.744;7.358;2022-10-30T22:40:21;19.67;;;8.93;;
37309;SDS011;23195;47.744;7.358;2022-10-30T22:42:54;22.03;;;9.33;;
37309;SDS011;23195;47.744;7.358;2022-10-30T22:45:20;16.80;;;8.97;;
37309;SDS011;23195;47.744;7.358;2022-10-30T22:47:45;14.70;;;9.00;;
37309;SDS011;23195;47.744;7.358;2022-10-30T22:50:11;15.73;;;8.83;;
37309;SDS011;23195;47.744;7.358;2022-10-30T22:52:37;15.97;;;8.60;;
37309;SDS011;23195;47.744;7.358;2022-10-30T22:55:03;16.60;;;9.03;;
37309;SDS011;23195;47.744;7.358;2022-10-30T22:57:29;15.00;;;8.07;;
37309;SDS011;23195;47.744;7.358;2022-10-30T22:59:54;19.30;;;9.10;;
37309;SDS011;23195;47.744;7.358;2022-10-30T23:02:20;12.57;;;7.90;;
37309;SDS011;23195;47.744;7.358;2022-10-30T23:04:46;16.03;;;8.43;;
37309;SDS011;23195;47.744;7.358;2022-10-30T23:07:12;15.53;;;8.40;;
37309;SDS011;23195;47.744;7.358;2022-10-30T23:09:37;18.43;;;8.43;;
37309;SDS011;23195;47.744;7.358;2022-10-30T23:12:03;17.40;;;9.27;;
37309;SDS011;23195;47.744;7.358;2022-10-30T23:14:29;18.80;;;9.13;;
37309;SDS011;23195;47.744;7.358;2022-10-30T23:16:55;16.60;;;8.57;;
37309;SDS011;23195;47.744;7.358;2022-10-30T23:19:21;17.57;;;9.03;;
37309;SDS011;23195;47.744;7.358;2022-10-30T23:21:47;15.87;;;8.20;;
37309;SDS011;23195;47.744;7.358;2022-10-30T23:24:12;17.20;;;8.73;;
37309;SDS011;23195;47.744;7.358;2022-10-30T23:26:38;16.73;;;8.60;;
37309;SDS011;23195;47.744;7.358;2022-10-30T23:29:04;17.23;;;8.87;;
37309;SDS011;23195;47.744;7.358;2022-10-30T23:31:31;17.47;;;9.07;;